Time;durP1;ratioP1;P1;durP2;ratioP2;P2;SDS_P1;SDS_P2;PMS_P1;PMS_P2;Temp;Humidity;BMP_temperature;BMP_pressure;BME280_temperature;BME280_humidity;BME280_pressure;Samples;Min_cycle;Max_cycle;Signal;HPM_P1;HPM_P2
2021/12/09 00:02:24;;;;;;;65.88;30.50;;;;;;;0.43;100.00;96440.41;4994180;28;20030;-75
2021/12/09 00:04:50;;;;;;;62.67;30.00;;;;;;;0.46;100.00;96428.28;5000264;28;20030;-84
2021/12/09 00:07:16;;;;;;;65.10;31.90;;;;;;;0.40;100.00;96426.69;4997985;28;20026;-76
2021/12/09 00:09:42;;;;;;;56.80;30.52;;;;;;;0.46;100.00;96439.88;4993594;28;20419;-76
2021/12/09 00:12:08;;;;;;;66.40;30.73;;;;;;;0.41;100.00;96430.97;4992502;28;20136;-76
2021/12/09 00:14:34;;;;;;;58.92;31.02;;;;;;;0.41;100.00;96430.97;4990190;28;20019;-76
2021/12/09 00:17:08;;;;;;;58.17;30.40;;;;;;;0.36;100.00;96422.91;4992401;28;20035;-77
2021/12/09 00:19:35;;;;;;;61.05;29.63;;;;;;;0.35;100.00;96421.28;4988906;28;20041;-75
2021/12/09 00:22:02;;;;;;;62.33;30.08;;;;;;;0.30;100.00;96423.97;4991176;28;20053;-75
2021/12/09 00:24:28;;;;;;;60.53;31.00;;;;;;;0.33;100.00;96435.00;4995877;28;20026;-75
2021/12/09 00:26:54;;;;;;;63.70;30.98;;;;;;;0.32;100.00;96430.69;4990837;28;20875;-76
2021/12/09 00:29:20;;;;;;;60.03;28.63;;;;;;;0.40;100.00;96432.88;4993631;28;20057;-75
2021/12/09 00:31:49;;;;;;;61.83;30.70;;;;;;;0.46;100.00;96418.34;4995254;28;20417;-76
2021/12/09 00:34:16;;;;;;;57.35;31.48;;;;;;;0.51;100.00;96417.53;4999866;28;20446;-82
2021/12/09 00:36:54;;;;;;;63.47;30.50;;;;;;;0.47;100.00;96414.56;4992407;28;20022;-74
2021/12/09 00:39:20;;;;;;;59.83;31.00;;;;;;;0.49;100.00;96409.75;4993424;28;20030;-74
2021/12/09 00:41:46;;;;;;;61.72;30.15;;;;;;;0.44;100.00;96407.03;4993224;28;20081;-74
2021/12/09 00:44:12;;;;;;;62.38;30.33;;;;;;;0.41;100.00;96414.81;4992998;28;20034;-75
2021/12/09 00:46:38;;;;;;;59.97;30.55;;;;;;;0.47;100.00;96414.56;4992537;28;20030;-77
2021/12/09 00:49:04;;;;;;;58.53;32.33;;;;;;;0.48;100.00;96418.88;4991276;28;20030;-75
2021/12/09 00:51:29;;;;;;;56.25;29.50;;;;;;;0.45;100.00;96415.91;4993325;28;20038;-75
2021/12/09 00:53:55;;;;;;;63.60;31.30;;;;;;;0.38;100.00;96401.94;4991248;28;20401;-76
2021/12/09 00:56:21;;;;;;;60.75;31.38;;;;;;;0.35;100.00;96402.47;4991790;28;20034;-76
2021/12/09 00:58:46;;;;;;;64.75;30.15;;;;;;;0.31;100.00;96407.59;4993968;28;20014;-76
2021/12/09 01:01:12;;;;;;;68.22;31.33;;;;;;;0.33;100.00;96412.69;4993026;28;20026;-74
2021/12/09 01:03:39;;;;;;;55.30;29.80;;;;;;;0.42;100.00;96405.69;4993689;28;21444;-74
2021/12/09 01:06:05;;;;;;;57.42;29.55;;;;;;;0.44;100.00;96416.97;4995273;28;20517;-75
2021/12/09 01:08:31;;;;;;;57.58;30.17;;;;;;;0.38;100.00;96404.63;4994568;28;20038;-74
2021/12/09 01:10:56;;;;;;;57.40;29.65;;;;;;;0.39;100.00;96409.75;4993403;28;20034;-76
2021/12/09 01:13:22;;;;;;;58.55;30.77;;;;;;;0.36;100.00;96412.97;4992602;28;20118;-73
2021/12/09 01:15:47;;;;;;;53.88;28.38;;;;;;;0.53;100.00;96407.31;4992428;28;20431;-76
2021/12/09 01:18:13;;;;;;;53.08;27.45;;;;;;;0.48;100.00;96408.13;4994629;28;20035;-76
2021/12/09 01:20:38;;;;;;;61.45;32.10;;;;;;;0.54;100.00;96414.28;4992340;28;20030;-73
2021/12/09 01:23:04;;;;;;;66.35;32.88;;;;;;;0.47;100.00;96403.81;4992821;28;20053;-76
2021/12/09 01:25:37;;;;;;;63.20;31.80;;;;;;;0.43;100.00;96407.31;4991548;28;20484;-76
2021/12/09 01:28:08;;;;;;;51.38;28.17;;;;;;;0.60;100.00;96418.59;4992854;28;20062;-76
2021/12/09 01:30:34;;;;;;;58.28;29.35;;;;;;;0.49;100.00;96422.38;4994018;28;20048;-78
2021/12/09 01:33:00;;;;;;;50.40;26.90;;;;;;;0.47;100.00;96419.16;4991074;28;20058;-74
2021/12/09 01:35:33;;;;;;;50.33;26.85;;;;;;;0.52;100.00;96406.50;4992404;28;20062;-73
2021/12/09 01:38:02;;;;;;;60.47;28.83;;;;;;;0.47;100.00;96398.44;4992226;28;20547;-74
2021/12/09 01:40:29;;;;;;;54.58;28.73;;;;;;;0.49;100.00;96396.28;4990918;28;20060;-76
2021/12/09 01:42:56;;;;;;;60.63;29.48;;;;;;;0.54;100.00;96382.84;4992052;28;20091;-76
2021/12/09 01:45:22;;;;;;;51.47;26.67;;;;;;;0.51;100.00;96387.94;4992041;28;20033;-75
2021/12/09 01:47:48;;;;;;;52.95;27.63;;;;;;;0.54;100.00;96392.78;4990346;28;20042;-75
2021/12/09 01:50:14;;;;;;;49.63;27.17;;;;;;;0.49;100.00;96404.38;4992150;28;20121;-76
2021/12/09 01:52:40;;;;;;;44.75;25.58;;;;;;;0.58;100.00;96410.00;4991317;28;20022;-75
2021/12/09 01:55:09;;;;;;;46.75;26.15;;;;;;;0.59;100.00;96411.63;4991846;28;20475;-74
2021/12/09 01:57:35;;;;;;;49.60;27.42;;;;;;;0.63;100.00;96412.66;4992010;28;20566;-75
2021/12/09 02:00:06;;;;;;;47.65;25.42;;;;;;;0.68;100.00;96401.94;4990328;28;20602;-76
2021/12/09 02:02:31;;;;;;;48.33;26.27;;;;;;;0.50;100.00;96391.72;4986304;28;20423;-76
2021/12/09 02:04:57;;;;;;;56.60;28.50;;;;;;;0.45;100.00;96397.09;4990697;28;20022;-76
2021/12/09 02:07:22;;;;;;;48.10;26.50;;;;;;;0.50;100.00;96405.19;4992028;28;20038;-75
2021/12/09 02:09:50;;;;;;;48.67;27.25;;;;;;;0.41;100.00;96393.31;4990860;28;20026;-75
2021/12/09 02:12:17;;;;;;;47.92;24.92;;;;;;;0.48;100.00;96404.63;4993421;28;20029;-75
2021/12/09 02:14:44;;;;;;;48.10;26.00;;;;;;;0.41;100.00;96387.94;4997118;28;20030;-77
2021/12/09 02:17:13;;;;;;;51.17;27.65;;;;;;;0.28;100.00;96399.25;4995144;28;20025;-76
2021/12/09 02:19:41;;;;;;;48.15;26.30;;;;;;;0.36;100.00;96417.53;4994911;28;20476;-76
2021/12/09 02:22:07;;;;;;;46.42;25.60;;;;;;;0.39;100.00;96392.78;4994559;28;20068;-75
2021/12/09 02:24:32;;;;;;;45.92;24.92;;;;;;;0.40;100.00;96386.34;4990283;28;20064;-74
2021/12/09 02:26:58;;;;;;;46.83;24.95;;;;;;;0.43;100.00;96383.94;4992633;28;20113;-76
2021/12/09 02:29:23;;;;;;;46.33;25.60;;;;;;;0.52;100.00;96400.31;4992588;28;20034;-77
2021/12/09 02:31:55;;;;;;;43.45;24.02;;;;;;;0.52;100.00;96387.69;4990909;28;20460;-76
2021/12/09 02:34:21;;;;;;;43.83;24.42;;;;;;;0.48;100.00;96385.78;4992864;28;20087;-75
2021/12/09 02:36:47;;;;;;;42.97;24.65;;;;;;;0.58;100.00;96396.56;4993805;28;20064;-75
2021/12/09 02:39:14;;;;;;;44.53;24.23;;;;;;;0.45;100.00;96403.28;4995403;28;20030;-75
2021/12/09 02:41:40;;;;;;;39.10;22.17;;;;;;;0.46;100.00;96398.72;4996149;28;20022;-77
2021/12/09 02:44:10;;;;;;;40.70;22.50;;;;;;;0.46;100.00;96387.97;4996403;28;20027;-77
2021/12/09 02:46:38;;;;;;;38.92;21.25;;;;;;;0.53;100.00;96386.59;5001145;28;20030;-77
2021/12/09 02:49:10;;;;;;;35.92;20.60;;;;;;;0.53;100.00;96407.31;4997554;28;20057;-79
2021/12/09 02:51:36;;;;;;;38.45;21.80;;;;;;;0.59;100.00;96421.56;4995553;28;20033;-75
2021/12/09 02:54:06;;;;;;;37.28;21.05;;;;;;;0.56;100.00;96417.53;4995219;28;20471;-75
2021/12/09 02:56:32;;;;;;;39.15;21.77;;;;;;;0.53;100.00;96413.47;4995136;28;20488;-75
2021/12/09 02:58:57;;;;;;;35.03;21.00;;;;;;;0.46;100.00;96425.59;4995249;28;20068;-77
2021/12/09 03:01:28;;;;;;;34.33;20.08;;;;;;;0.54;100.00;96409.72;4994965;28;20415;-75
2021/12/09 03:03:59;;;;;;;36.45;21.42;;;;;;;0.48;100.00;96388.47;4994897;28;20022;-74
2021/12/09 03:06:34;;;;;;;30.85;19.40;;;;;;;0.55;100.00;96383.66;4994911;28;20022;-77
2021/12/09 03:09:07;;;;;;;36.47;20.90;;;;;;;0.47;100.00;96392.28;4996857;28;20030;-76
2021/12/09 03:11:32;;;;;;;36.97;21.42;;;;;;;0.45;100.00;96402.47;4992999;28;20038;-76
2021/12/09 03:13:59;;;;;;;35.13;21.23;;;;;;;0.50;100.00;96380.97;4994930;28;20035;-74
2021/12/09 03:16:25;;;;;;;35.13;20.73;;;;;;;0.37;100.00;96370.75;4993474;28;20030;-74
2021/12/09 03:19:04;;;;;;;37.33;21.00;;;;;;;0.33;100.00;96358.91;4994813;28;20125;-75
2021/12/09 03:21:34;;;;;;;35.40;18.95;;;;;;;0.37;100.00;96379.63;4994807;28;20049;-76
2021/12/09 03:24:01;;;;;;;34.80;18.95;;;;;;;0.39;100.00;96406.25;4994948;28;20545;-76
2021/12/09 03:26:35;;;;;;;32.30;17.73;;;;;;;0.40;100.00;96421.31;4993321;28;20031;-73
2021/12/09 03:29:05;;;;;;;32.30;19.00;;;;;;;0.47;100.00;96408.41;4994363;28;20158;-76
2021/12/09 03:31:30;;;;;;;32.90;19.65;;;;;;;0.52;100.00;96405.69;4994392;28;20156;-76
2021/12/09 03:33:57;;;;;;;31.42;18.35;;;;;;;0.53;100.00;96407.31;4994466;28;20466;-77
2021/12/09 03:36:27;;;;;;;30.90;18.15;;;;;;;0.43;100.00;96401.94;4993277;28;20502;-75
2021/12/09 03:39:05;;;;;;;31.63;18.20;;;;;;;0.51;100.00;96393.31;4994575;28;20419;-74
2021/12/09 03:41:30;;;;;;;28.35;16.98;;;;;;;0.50;100.00;96364.84;4992447;28;20111;-76
2021/12/09 03:43:56;;;;;;;28.85;17.02;;;;;;;0.56;100.00;96381.75;4993156;28;20054;-75
2021/12/09 03:46:21;;;;;;;29.52;16.63;;;;;;;0.57;100.00;96399.50;4994212;28;20026;-76
2021/12/09 03:48:47;;;;;;;27.08;16.40;;;;;;;0.52;100.00;96385.00;4991570;28;20046;-75
2021/12/09 03:51:12;;;;;;;30.00;18.75;;;;;;;0.56;100.00;96385.28;4992960;28;20034;-74
2021/12/09 03:53:38;;;;;;;27.45;16.50;;;;;;;0.56;100.00;96384.44;4994654;28;20502;-75
2021/12/09 03:56:04;;;;;;;27.48;16.63;;;;;;;0.52;100.00;96395.75;4992606;28;20037;-76
2021/12/09 03:58:30;;;;;;;26.73;16.98;;;;;;;0.60;100.00;96390.88;4993784;28;20038;-75
2021/12/09 04:00:55;;;;;;;30.23;18.45;;;;;;;0.56;100.00;96396.03;4993515;28;20476;-75
2021/12/09 04:03:21;;;;;;;27.27;16.13;;;;;;;0.56;100.00;96387.97;4993181;28;20030;-80
2021/12/09 04:05:47;;;;;;;30.83;19.20;;;;;;;0.42;100.00;96394.94;4995287;28;20479;-76
2021/12/09 04:08:13;;;;;;;31.10;17.95;;;;;;;0.56;100.00;96417.53;4993868;28;20037;-76
2021/12/09 04:10:39;;;;;;;33.03;18.40;;;;;;;0.52;100.00;96424.53;4993599;28;20462;-76
2021/12/09 04:13:05;;;;;;;32.22;19.30;;;;;;;0.56;100.00;96424.81;4992463;28;20503;-76
2021/12/09 04:15:30;;;;;;;35.38;20.67;;;;;;;0.60;100.00;96418.59;4993199;28;20030;-75
2021/12/09 04:17:56;;;;;;;38.40;21.13;;;;;;;0.52;100.00;96405.69;4992747;28;20027;-76
2021/12/09 04:20:21;;;;;;;38.65;22.02;;;;;;;0.49;100.00;96417.00;4993957;28;20026;-76
2021/12/09 04:22:50;;;;;;;42.38;23.02;;;;;;;0.43;100.00;96400.06;4994374;28;20044;-74
2021/12/09 04:25:18;;;;;;;43.40;23.17;;;;;;;0.48;100.00;96399.25;4993872;28;20102;-77
2021/12/09 04:27:44;;;;;;;43.20;23.35;;;;;;;0.40;100.00;96389.03;4993939;28;20030;-77
2021/12/09 04:30:12;;;;;;;46.25;24.58;;;;;;;0.40;100.00;96370.22;4993446;28;20109;-76
2021/12/09 04:32:38;;;;;;;44.55;24.38;;;;;;;0.39;100.00;96363.22;4993636;28;20038;-75
2021/12/09 04:35:04;;;;;;;43.08;23.00;;;;;;;0.44;100.00;96365.88;4993794;28;20382;-76
2021/12/09 04:37:30;;;;;;;44.17;23.95;;;;;;;0.48;100.00;96377.72;4993862;28;20085;-75
2021/12/09 04:39:55;;;;;;;46.42;23.13;;;;;;;0.52;100.00;96379.63;4992336;28;20030;-75
2021/12/09 04:42:21;;;;;;;43.70;23.50;;;;;;;0.49;100.00;96363.22;4994003;28;20046;-76
2021/12/09 04:44:46;;;;;;;46.60;24.23;;;;;;;0.45;100.00;96383.66;4994017;28;20053;-74
2021/12/09 04:47:12;;;;;;;45.60;24.60;;;;;;;0.47;100.00;96397.66;4993299;28;20042;-74
2021/12/09 04:49:37;;;;;;;45.17;24.33;;;;;;;0.46;100.00;96396.03;4992216;28;20479;-76
2021/12/09 04:52:04;;;;;;;41.65;24.85;;;;;;;0.59;100.00;96390.09;4994065;28;20391;-76
2021/12/09 04:54:30;;;;;;;40.35;22.73;;;;;;;0.56;100.00;96379.88;4993773;28;20033;-76
2021/12/09 04:56:55;;;;;;;39.55;22.75;;;;;;;0.64;100.00;96365.88;4996738;28;20431;-76
2021/12/09 04:59:21;;;;;;;43.60;23.98;;;;;;;0.57;100.00;96367.22;4998372;28;20045;-78
2021/12/09 05:01:49;;;;;;;43.53;23.27;;;;;;;0.59;100.00;96383.91;4992298;28;20567;-76
2021/12/09 05:04:15;;;;;;;37.15;22.50;;;;;;;0.60;100.00;96380.13;4992961;28;20148;-76
2021/12/09 05:06:41;;;;;;;35.80;20.75;;;;;;;0.65;100.00;96367.50;4991856;28;20026;-74
2021/12/09 05:09:11;;;;;;;41.05;22.55;;;;;;;0.61;100.00;96352.97;4992709;28;20029;-74
2021/12/09 05:14:04;;;;;;;40.50;24.02;;;;;;;0.68;100.00;96369.66;4993083;28;20011;-74
2021/12/09 05:16:30;;;;;;;43.92;22.33;;;;;;;0.73;100.00;96380.38;4995227;28;20034;-76
2021/12/09 05:19:00;;;;;;;47.15;22.95;;;;;;;0.61;100.00;96390.63;4991941;28;20468;-76
2021/12/09 05:21:34;;;;;;;41.40;22.85;;;;;;;0.70;100.00;96413.22;4975646;28;20042;-77
2021/12/09 05:24:00;;;;;;;37.97;21.25;;;;;;;0.64;100.00;96425.06;4973302;28;20117;-77
2021/12/09 05:26:30;;;;;;;46.53;23.42;;;;;;;0.70;100.00;96421.28;4984937;28;20443;-76
2021/12/09 05:28:57;;;;;;;39.80;20.95;;;;;;;0.64;100.00;96418.88;4991335;28;20030;-75
2021/12/09 05:34:09;;;;;;;39.88;22.33;;;;;;;0.67;100.00;96405.69;4992899;28;20041;-77
2021/12/09 05:36:36;;;;;;;36.33;20.48;;;;;;;0.57;100.00;96413.75;4993240;28;20164;-75
2021/12/09 05:39:03;;;;;;;44.47;24.42;;;;;;;0.34;100.00;96438.50;4992244;28;20045;-76
2021/12/09 05:41:29;;;;;;;42.30;24.55;;;;;;;0.28;100.00;96421.53;4990741;28;20062;-74
2021/12/09 05:43:54;;;;;;;39.40;23.52;;;;;;;0.39;100.00;96433.13;4993869;28;20049;-76
2021/12/09 05:46:22;;;;;;;42.17;20.15;;;;;;;0.46;100.00;96428.28;4993972;28;20041;-75
2021/12/09 05:48:49;;;;;;;40.25;22.15;;;;;;;0.60;100.00;96432.03;4990757;28;20133;-76
2021/12/09 05:51:15;;;;;;;38.10;21.58;;;;;;;0.63;100.00;96442.25;4990252;28;20030;-73
2021/12/09 05:53:40;;;;;;;36.72;18.77;;;;;;;0.61;100.00;96430.97;4993414;28;20023;-77
2021/12/09 05:56:05;;;;;;;35.08;21.02;;;;;;;0.57;100.00;96429.88;4993313;28;20077;-75
2021/12/09 05:58:31;;;;;;;38.78;20.83;;;;;;;0.62;100.00;96416.47;4992198;28;20030;-75
2021/12/09 06:00:59;;;;;;;37.85;19.13;;;;;;;0.68;100.00;96407.31;4995386;28;20109;-76
2021/12/09 06:03:25;;;;;;;39.75;19.98;;;;;;;0.69;100.00;96406.22;4992456;28;20223;-76
2021/12/09 06:05:51;;;;;;;37.42;20.73;;;;;;;0.63;100.00;96417.28;4989753;28;20044;-76
2021/12/09 06:08:18;;;;;;;37.97;19.88;;;;;;;0.54;100.00;96419.69;4991341;28;20364;-77
2021/12/09 06:10:45;;;;;;;43.53;21.67;;;;;;;0.47;100.00;96406.50;4989569;28;20097;-79
2021/12/09 06:13:10;;;;;;;43.90;23.75;;;;;;;0.40;100.00;96402.47;4995538;28;20094;-77
2021/12/09 06:15:36;;;;;;;49.50;23.75;;;;;;;0.38;100.00;96416.19;4991895;28;20026;-77
2021/12/09 06:18:02;;;;;;;44.33;22.98;;;;;;;0.38;100.00;96400.03;4991851;28;20045;-84
2021/12/09 06:20:28;;;;;;;42.75;22.33;;;;;;;0.36;100.00;96402.22;4991334;28;20027;-77
2021/12/09 06:22:53;;;;;;;38.90;22.10;;;;;;;0.46;100.00;96401.41;4992046;28;20038;-84
2021/12/09 06:25:20;;;;;;;42.60;21.02;;;;;;;0.48;100.00;96396.56;4990365;28;20023;-82
2021/12/09 06:27:51;;;;;;;46.55;23.40;;;;;;;0.52;100.00;96395.75;4992139;28;20403;-76
2021/12/09 06:30:18;;;;;;;42.30;21.88;;;;;;;0.51;100.00;96402.19;4991998;28;20114;-78
2021/12/09 06:32:44;;;;;;;46.10;20.42;;;;;;;0.59;100.00;96390.09;4987758;28;20018;-75
2021/12/09 06:35:10;;;;;;;41.92;21.17;;;;;;;0.68;100.00;96376.91;4994065;28;20027;-87
2021/12/09 06:37:39;;;;;;;45.38;22.55;;;;;;;0.60;100.00;96364.81;4996772;28;20034;-75
2021/12/09 06:40:10;;;;;;;43.90;23.77;;;;;;;0.72;100.00;96389.53;4992353;28;20052;-79
2021/12/09 06:42:36;;;;;;;42.17;20.92;;;;;;;0.67;100.00;96413.75;4991582;28;20040;-76
2021/12/09 06:45:03;;;;;;;44.50;20.98;;;;;;;0.62;100.00;96411.09;4992562;28;20031;-78
2021/12/09 06:47:29;;;;;;;38.30;21.73;;;;;;;0.61;100.00;96404.06;4996773;28;20047;-80
2021/12/09 06:49:54;;;;;;;40.65;21.23;;;;;;;0.66;100.00;96390.63;4993280;28;20037;-80
2021/12/09 06:52:21;;;;;;;41.70;21.83;;;;;;;0.68;100.00;96410.00;4991506;28;20030;-74
2021/12/09 06:54:46;;;;;;;40.45;23.23;;;;;;;0.61;100.00;96428.28;4986069;28;20023;-75
2021/12/09 06:57:11;;;;;;;57.35;28.08;;;;;;;0.45;100.00;96421.28;4989656;28;20026;-75
2021/12/09 06:59:37;;;;;;;48.30;23.00;;;;;;;0.39;100.00;96433.13;4991121;28;20431;-76
2021/12/09 07:02:02;;;;;;;43.33;22.65;;;;;;;0.33;100.00;96426.94;4989554;28;20014;-76
2021/12/09 07:04:28;;;;;;;79.20;34.42;;;;;;;0.37;100.00;96440.66;4989558;28;20022;-76
2021/12/09 07:06:54;;;;;;;59.08;31.65;;;;;;;0.42;100.00;96443.34;4989418;28;20018;-76
2021/12/09 07:09:19;;;;;;;64.15;36.30;;;;;;;0.46;100.00;96452.50;4991014;28;20093;-75
2021/12/09 07:11:50;;;;;;;64.07;33.78;;;;;;;0.31;100.00;96455.19;4995201;28;20060;-78
2021/12/09 07:14:19;;;;;;;88.20;43.55;;;;;;;0.38;100.00;96456.50;4992110;28;20022;-75
2021/12/09 07:16:45;;;;;;;47.20;26.67;;;;;;;0.51;100.00;96449.78;4986927;28;20105;-75
2021/12/09 07:19:10;;;;;;;49.63;28.83;;;;;;;0.54;100.00;96451.94;4991073;28;20065;-75
2021/12/09 07:21:35;;;;;;;41.35;22.30;;;;;;;0.63;100.00;96454.94;4988861;28;20057;-74
2021/12/09 07:24:01;;;;;;;44.75;21.80;;;;;;;0.71;100.00;96457.88;4992927;28;20456;-74
2021/12/09 07:26:30;;;;;;;38.90;22.67;;;;;;;0.75;100.00;96448.16;4994321;28;20035;-74
2021/12/09 07:28:55;;;;;;;28.23;16.27;;;;;;;0.83;100.00;96428.81;4992355;28;20488;-75
2021/12/09 07:31:23;;;;;;;42.15;21.73;;;;;;;0.85;100.00;96423.13;5001205;28;20076;-75
2021/12/09 07:33:49;;;;;;;36.35;19.85;;;;;;;0.83;100.00;96423.44;4993636;28;20562;-75
2021/12/09 07:36:14;;;;;;;33.47;18.98;;;;;;;0.91;100.00;96414.78;4996199;28;20065;-76
2021/12/09 07:38:41;;;;;;;32.70;20.27;;;;;;;0.90;100.00;96401.63;4989634;28;20034;-74
2021/12/09 07:41:07;;;;;;;35.70;19.30;;;;;;;0.81;100.00;96401.38;4998003;28;20069;-79
2021/12/09 07:43:32;;;;;;;31.67;19.00;;;;;;;0.82;100.00;96394.91;4998750;28;20069;-76
2021/12/09 07:45:59;;;;;;;35.05;19.50;;;;;;;0.82;100.00;96389.50;5001159;28;20069;-75
2021/12/09 07:48:24;;;;;;;32.67;18.52;;;;;;;0.86;100.00;96390.59;4998238;28;20053;-76
2021/12/09 07:50:50;;;;;;;29.90;17.63;;;;;;;0.86;100.00;96406.75;4993525;28;20034;-76
2021/12/09 07:53:17;;;;;;;29.48;16.77;;;;;;;0.86;100.00;96395.97;4992884;28;20113;-73
2021/12/09 07:55:44;;;;;;;28.80;15.68;;;;;;;0.80;100.00;96391.69;4992344;28;20018;-74
2021/12/09 07:58:10;;;;;;;34.97;17.55;;;;;;;0.73;100.00;96407.28;4992526;28;20050;-75
2021/12/09 08:00:35;;;;;;;32.10;17.75;;;;;;;0.78;100.00;96404.59;4991840;28;20072;-75
2021/12/09 08:03:03;;;;;;;33.40;17.70;;;;;;;0.80;100.00;96418.59;4991540;28;20018;-76
2021/12/09 08:05:31;;;;;;;30.48;17.42;;;;;;;0.68;100.00;96439.59;4991935;28;20030;-77
2021/12/09 08:07:56;;;;;;;28.48;17.23;;;;;;;0.62;100.00;96448.75;4991441;28;20415;-75
2021/12/09 08:10:22;;;;;;;28.75;17.45;;;;;;;0.85;100.00;96458.94;4992841;28;20113;-75
2021/12/09 08:12:48;;;;;;;29.67;17.60;;;;;;;0.84;100.00;96461.91;4993073;28;20479;-73
2021/12/09 08:15:16;;;;;;;60.95;30.00;;;;;;;0.84;100.00;96467.28;4992861;28;20050;-76
2021/12/09 08:17:56;;;;;;;55.05;27.95;;;;;;;1.05;100.00;96471.56;4991883;28;20053;-75
2021/12/09 08:20:22;;;;;;;47.25;23.88;;;;;;;1.17;100.00;96479.34;4993515;28;20026;-76
2021/12/09 08:22:47;;;;;;;35.28;19.30;;;;;;;1.27;100.00;96471.25;4993191;28;20530;-76
2021/12/09 08:25:13;;;;;;;33.70;18.23;;;;;;;1.40;100.00;96479.59;4993005;28;20026;-75
2021/12/09 08:27:42;;;;;;;34.55;18.55;;;;;;;1.53;100.00;96494.38;4993429;28;20061;-75
2021/12/09 08:30:09;;;;;;;30.35;17.88;;;;;;;1.52;100.00;96498.13;4993364;28;20049;-76
2021/12/09 08:32:35;;;;;;;27.98;17.92;;;;;;;1.51;100.00;96505.41;4992554;28;20042;-77
2021/12/09 08:35:01;;;;;;;29.73;17.35;;;;;;;1.63;100.00;96503.19;4990879;28;20022;-75
2021/12/09 08:37:29;;;;;;;27.38;17.13;;;;;;;1.67;100.00;96503.47;4992895;28;20430;-74
2021/12/09 08:39:54;;;;;;;30.63;16.45;;;;;;;1.67;100.00;96503.47;4995206;28;20035;-79
2021/12/09 08:42:20;;;;;;;27.08;16.58;;;;;;;1.57;100.00;96514.25;4994499;28;20054;-75
2021/12/09 08:44:45;;;;;;;26.02;15.23;;;;;;;1.56;100.00;96523.44;4991002;28;20034;-76
2021/12/09 08:47:10;;;;;;;27.83;16.50;;;;;;;1.61;100.00;96520.72;4991730;28;20136;-75
2021/12/09 08:49:37;;;;;;;24.85;15.82;;;;;;;1.66;100.00;96523.41;4992836;28;20030;-75
2021/12/09 08:52:03;;;;;;;30.67;16.63;;;;;;;1.63;100.00;96517.78;4990643;28;20082;-76
2021/12/09 08:54:29;;;;;;;24.75;16.08;;;;;;;1.57;100.00;96530.44;4992980;28;20043;-75
2021/12/09 08:56:55;;;;;;;27.45;16.65;;;;;;;1.59;100.00;96528.28;4993174;28;20655;-75
2021/12/09 08:59:22;;;;;;;24.55;15.77;;;;;;;1.69;100.00;96527.44;4992548;28;20030;-75
2021/12/09 09:01:48;;;;;;;26.98;16.52;;;;;;;1.73;100.00;96526.63;4992251;28;20031;-76
2021/12/09 09:04:14;;;;;;;26.33;16.17;;;;;;;1.75;100.00;96521.78;4993208;28;20034;-76
2021/12/09 09:06:50;;;;;;;27.00;17.30;;;;;;;2.23;100.00;96517.50;4998041;28;20054;-75
2021/12/09 09:09:16;;;;;;;29.75;16.55;;;;;;;2.35;100.00;96509.88;4992642;28;20030;-74
2021/12/09 09:11:41;;;;;;;27.33;17.48;;;;;;;2.25;100.00;96517.25;4994733;28;20028;-75
2021/12/09 09:14:07;;;;;;;26.52;17.48;;;;;;;2.21;100.00;96532.34;4997261;28;20024;-77
2021/12/09 09:16:33;;;;;;;26.77;16.35;;;;;;;2.14;100.00;96535.34;4994899;28;20847;-78
2021/12/09 09:18:58;;;;;;;30.05;17.70;;;;;;;2.23;100.00;96539.09;4992565;28;20379;-75
2021/12/09 09:21:25;;;;;;;31.00;17.83;;;;;;;2.23;100.00;96549.06;4994093;28;20034;-76
2021/12/09 09:23:55;;;;;;;28.08;18.48;;;;;;;2.15;100.00;96553.97;4991760;28;20463;-76
2021/12/09 09:26:23;;;;;;;33.90;17.90;;;;;;;2.04;100.00;96552.38;4997099;28;20106;-74
2021/12/09 09:28:49;;;;;;;31.02;17.92;;;;;;;2.06;100.00;96549.41;4994422;28;20030;-75
2021/12/09 09:31:15;;;;;;;33.55;19.50;;;;;;;2.00;100.00;96545.94;4995413;28;20494;-78
2021/12/09 09:33:43;;;;;;;35.40;18.30;;;;;;;2.02;100.00;96530.28;4995620;28;20018;-77
2021/12/09 09:36:09;;;;;;;34.60;20.33;;;;;;;1.96;100.00;96528.69;4998240;28;20114;-75
2021/12/09 09:38:34;;;;;;;32.72;18.20;;;;;;;1.97;100.00;96543.78;4993833;28;20490;-74
2021/12/09 09:41:08;;;;;;;35.22;20.10;;;;;;;2.05;100.00;96550.50;4991756;28;20026;-75
2021/12/09 09:46:19;;;;;;;28.08;17.77;;;;;;;2.20;100.00;96533.44;4985913;28;20038;-75
2021/12/09 09:48:45;;;;;;;29.27;17.30;;;;;;;2.28;100.00;96541.78;4990867;28;20057;-76
2021/12/09 09:51:11;;;;;;;30.02;17.35;;;;;;;2.16;100.00;96539.38;4990207;28;20074;-74
2021/12/09 09:53:41;;;;;;;27.70;17.95;;;;;;;2.20;100.00;96528.84;4991542;28;20419;-74
2021/12/09 09:56:14;;;;;;;34.00;18.80;;;;;;;2.08;100.00;96526.50;4990080;28;20113;-75
2021/12/09 09:58:41;;;;;;;31.33;19.77;;;;;;;2.48;100.00;96530.03;4993870;28;20411;-75
2021/12/09 10:01:07;;;;;;;31.27;17.77;;;;;;;2.41;100.00;96530.34;4993011;28;20026;-74
2021/12/09 10:03:40;;;;;;;27.15;15.93;;;;;;;2.37;100.00;96525.81;4993077;28;20053;-75
2021/12/09 10:06:05;;;;;;;26.92;16.63;;;;;;;2.25;100.00;96514.53;4994134;28;20022;-78
2021/12/09 10:08:32;;;;;;;25.40;16.30;;;;;;;2.21;100.00;96521.56;4997076;28;20446;-76
2021/12/09 10:10:59;;;;;;;25.75;15.60;;;;;;;2.23;100.00;96533.69;4996576;28;20030;-77
2021/12/09 10:13:34;;;;;;;30.25;16.55;;;;;;;2.12;100.00;96541.03;4993833;28;20026;-82
2021/12/09 10:16:02;;;;;;;22.58;15.45;;;;;;;2.54;100.00;96532.44;4992208;28;20027;-83
2021/12/09 10:18:39;;;;;;;23.40;15.18;;;;;;;2.82;100.00;96540.91;4992690;28;20030;-85
2021/12/09 10:21:07;;;;;;;24.15;15.00;;;;;;;2.63;100.00;96543.47;4992452;28;20093;-80
2021/12/09 10:23:50;;;;;;;19.90;12.75;;;;;;;2.54;100.00;96535.13;4993239;28;20126;-81
2021/12/09 10:26:30;;;;;;;22.15;12.63;;;;;;;2.38;100.00;96517.41;4991421;28;20390;-78
2021/12/09 10:29:03;;;;;;;19.63;12.57;;;;;;;2.59;100.00;96537.00;4990640;28;20050;-77
2021/12/09 10:31:35;;;;;;;20.63;12.82;;;;;;;2.57;100.00;96522.97;4996281;28;20064;-77
2021/12/09 10:34:15;;;;;;;20.25;12.45;;;;;;;2.52;100.00;96521.13;4991643;28;20060;-76
2021/12/09 10:36:51;;;;;;;25.90;14.57;;;;;;;2.66;100.00;96532.13;4989975;28;20023;-76
2021/12/09 10:39:23;;;;;;;21.83;12.57;;;;;;;2.68;100.00;96538.84;4989517;28;20117;-74
2021/12/09 10:41:50;;;;;;;21.23;13.30;;;;;;;2.56;100.00;96538.38;4990621;28;20022;-75
2021/12/09 10:44:16;;;;;;;20.67;13.15;;;;;;;2.48;100.00;96540.84;4989888;28;20501;-74
2021/12/09 10:46:56;;;;;;;21.63;12.85;;;;;;;2.38;100.00;96536.31;4991260;28;20396;-77
2021/12/09 10:49:23;;;;;;;21.60;13.45;;;;;;;2.32;100.00;96531.25;4989335;28;20123;-75
2021/12/09 10:51:57;;;;;;;24.77;13.75;;;;;;;2.23;100.00;96532.88;4990517;28;20106;-74
2021/12/09 10:54:32;;;;;;;21.63;13.38;;;;;;;2.20;100.00;96541.53;4990520;28;20030;-80
2021/12/09 10:57:17;;;;;;;;;;;;;;;2.51;100.00;96534.88;4991302;28;20026;-78
2021/12/09 10:59:43;;;;;;;22.00;11.13;;;;;;;3.10;100.00;96543.63;4996820;28;19918;-79
2021/12/09 11:02:09;;;;;;;22.55;13.00;;;;;;;3.33;100.00;96541.28;5001797;28;20061;-78
2021/12/09 11:04:34;;;;;;;21.38;12.00;;;;;;;3.18;100.00;96540.34;4996135;28;20046;-78
2021/12/09 11:07:18;;;;;;;24.65;13.48;;;;;;;3.00;100.00;96540.22;4995542;28;20525;-79
2021/12/09 11:09:44;;;;;;;23.63;13.55;;;;;;;2.77;100.00;96539.03;4995627;28;20040;-79
2021/12/09 11:12:28;;;;;;;23.23;13.57;;;;;;;2.55;100.00;96541.34;4994723;28;20030;-74
2021/12/09 11:15:00;;;;;;;20.92;12.43;;;;;;;2.33;100.00;96538.22;4994953;28;20030;-74
2021/12/09 11:17:38;;;;;;;20.92;13.23;;;;;;;2.31;100.00;96529.63;4995527;28;20038;-76
2021/12/09 11:20:04;;;;;;;19.45;12.63;;;;;;;2.38;100.00;96540.91;4995224;28;20022;-76
2021/12/09 11:22:32;;;;;;;21.70;13.27;;;;;;;2.51;100.00;96529.47;4992513;28;20113;-76
2021/12/09 11:25:02;;;;;;;26.52;14.27;;;;;;;2.49;100.00;96531.66;4994837;28;20064;-76
2021/12/09 11:27:29;;;;;;;23.23;13.85;;;;;;;2.58;100.00;96538.91;4991631;28;20030;-79